sensor_id;sensor_type;location;lat;lon;timestamp;pressure;altitude;pressure_sealevel;temperature;humidity
64827;BME280;51265;53.972;12.286;2023-02-13T00:01:51;102871.41;;;5.23;100.00
64827;BME280;51265;53.972;12.286;2023-02-13T00:04:17;102870.78;;;5.21;100.00
64827;BME280;51265;53.972;12.286;2023-02-13T00:06:43;102870.16;;;5.19;100.00
64827;BME280;51265;53.972;12.286;2023-02-13T00:09:13;102868.44;;;5.18;100.00
64827;BME280;51265;53.972;12.286;2023-02-13T00:11:39;102875.38;;;5.14;100.00
64827;BME280;51265;53.972;12.286;2023-02-13T00:14:05;102873.06;;;5.17;100.00
64827;BME280;51265;53.972;12.286;2023-02-13T00:16:32;102869.91;;;5.14;100.00
64827;BME280;51265;53.972;12.286;2023-02-13T00:18:58;102867.19;;;5.14;100.00
64827;BME280;51265;53.972;12.286;2023-02-13T00:21:25;102876.03;;;5.16;100.00
64827;BME280;51265;53.972;12.286;2023-02-13T00:23:51;102870.56;;;5.16;100.00
64827;BME280;51265;53.972;12.286;2023-02-13T00:26:18;102871.41;;;5.16;100.00
64827;BME280;51265;53.972;12.286;2023-02-13T00:28:44;102874.31;;;5.08;100.00
64827;BME280;51265;53.972;12.286;2023-02-13T00:31:17;102862.56;;;5.08;100.00
64827;BME280;51265;53.972;12.286;2023-02-13T00:33:44;102866.75;;;5.04;100.00
64827;BME280;51265;53.972;12.286;2023-02-13T00:36:20;102873.47;;;5.08;100.00
64827;BME280;51265;53.972;12.286;2023-02-13T00:38:47;102873.06;;;5.11;100.00
64827;BME280;51265;53.972;12.286;2023-02-13T00:41:15;102870.09;;;5.06;100.00
64827;BME280;51265;53.972;12.286;2023-02-13T00:43:43;102875.16;;;5.09;100.00
64827;BME280;51265;53.972;12.286;2023-02-13T00:46:09;102874.75;;;5.12;100.00
64827;BME280;51265;53.972;12.286;2023-02-13T00:48:36;102876.84;;;5.10;100.00
64827;BME280;51265;53.972;12.286;2023-02-13T00:51:03;102878.75;;;5.16;100.00
64827;BME280;51265;53.972;12.286;2023-02-13T00:53:30;102879.78;;;5.08;100.00
64827;BME280;51265;53.972;12.286;2023-02-13T00:55:57;102875.16;;;5.09;100.00
64827;BME280;51265;53.972;12.286;2023-02-13T00:58:23;102873.47;;;5.08;100.00
64827;BME280;51265;53.972;12.286;2023-02-13T01:00:51;102873.91;;;5.18;100.00
64827;BME280;51265;53.972;12.286;2023-02-13T01:03:19;102872.63;;;5.14;100.00
64827;BME280;51265;53.972;12.286;2023-02-13T01:05:46;102867.19;;;5.14;100.00
64827;BME280;51265;53.972;12.286;2023-02-13T01:08:13;102870.34;;;5.24;100.00
64827;BME280;51265;53.972;12.286;2023-02-13T01:10:40;102868.03;;;5.34;100.00
64827;BME280;51265;53.972;12.286;2023-02-13T01:13:08;102872.69;;;5.27;100.00
64827;BME280;51265;53.972;12.286;2023-02-13T01:15:35;102870.56;;;5.29;100.00
64827;BME280;51265;53.972;12.286;2023-02-13T01:18:02;102869.75;;;5.35;100.00
64827;BME280;51265;53.972;12.286;2023-02-13T01:20:29;102867.00;;;5.29;100.00
64827;BME280;51265;53.972;12.286;2023-02-13T01:22:56;102867.22;;;5.34;100.00
64827;BME280;51265;53.972;12.286;2023-02-13T01:25:23;102859.88;;;5.28;100.00
64827;BME280;51265;53.972;12.286;2023-02-13T01:27:50;102859.22;;;5.32;100.00
64827;BME280;51265;53.972;12.286;2023-02-13T01:30:18;102863.19;;;5.16;100.00
64827;BME280;51265;53.972;12.286;2023-02-13T01:32:45;102860.44;;;5.10;100.00
64827;BME280;51265;53.972;12.286;2023-02-13T01:35:14;102861.50;;;5.09;100.00
64827;BME280;51265;53.972;12.286;2023-02-13T01:37:41;102859.19;;;5.06;100.00
64827;BME280;51265;53.972;12.286;2023-02-13T01:40:10;102854.16;;;5.03;100.00
64827;BME280;51265;53.972;12.286;2023-02-13T01:42:37;102854.16;;;5.03;100.00
64827;BME280;51265;53.972;12.286;2023-02-13T01:48:24;102865.06;;;5.03;100.00
64827;BME280;51265;53.972;12.286;2023-02-13T01:50:56;102862.38;;;5.16;100.00
64827;BME280;51265;53.972;12.286;2023-02-13T01:53:35;102854.16;;;5.16;100.00
64827;BME280;51265;53.972;12.286;2023-02-13T01:56:16;102853.34;;;5.15;100.00
64827;BME280;51265;53.972;12.286;2023-02-13T01:58:45;102847.47;;;5.18;100.00
64827;BME280;51265;53.972;12.286;2023-02-13T02:01:14;102826.66;;;5.24;100.00
64827;BME280;51265;53.972;12.286;2023-02-13T02:06:35;102815.91;;;5.29;100.00
64827;BME280;51265;53.972;12.286;2023-02-13T02:09:08;102813.84;;;5.31;100.00
64827;BME280;51265;53.972;12.286;2023-02-13T02:11:38;102797.00;;;5.34;100.00
64827;BME280;51265;53.972;12.286;2023-02-13T02:14:07;102786.09;;;5.28;100.00
64827;BME280;51265;53.972;12.286;2023-02-13T02:16:34;102781.47;;;5.28;100.00
64827;BME280;51265;53.972;12.286;2023-02-13T02:19:04;102765.91;;;5.09;100.00
64827;BME280;51265;53.972;12.286;2023-02-13T02:21:44;102764.66;;;4.98;100.00
64827;BME280;51265;53.972;12.286;2023-02-13T02:27:13;102768.38;;;5.63;100.00
64827;BME280;51265;53.972;12.286;2023-02-13T02:33:11;102749.72;;;5.14;100.00
64827;BME280;51265;53.972;12.286;2023-02-13T02:35:52;102739.00;;;5.06;100.00
64827;BME280;51265;53.972;12.286;2023-02-13T02:41:11;102739.44;;;5.03;100.00
64827;BME280;51265;53.972;12.286;2023-02-13T02:44:23;102752.44;;;5.40;100.00
64827;BME280;51265;53.972;12.286;2023-02-13T02:47:01;102749.69;;;5.54;100.00
64827;BME280;51265;53.972;12.286;2023-02-13T02:49:56;102731.38;;;5.54;100.00
64827;BME280;51265;53.972;12.286;2023-02-13T02:55:18;102712.25;;;5.54;100.00
64827;BME280;51265;53.972;12.286;2023-02-13T02:58:01;102706.97;;;5.66;100.00
64827;BME280;51265;53.972;12.286;2023-02-13T03:01:11;102678.38;;;5.62;100.00
64827;BME280;51265;53.972;12.286;2023-02-13T03:04:00;102671.28;;;5.41;100.00
64827;BME280;51265;53.972;12.286;2023-02-13T03:06:48;102670.59;;;5.59;100.00
64827;BME280;51265;53.972;12.286;2023-02-13T03:09:22;102656.56;;;5.48;100.00
64827;BME280;51265;53.972;12.286;2023-02-13T03:12:08;102658.66;;;5.53;100.00
64827;BME280;51265;53.972;12.286;2023-02-13T03:14:55;102634.78;;;5.15;100.00
64827;BME280;51265;53.972;12.286;2023-02-13T03:17:21;102632.72;;;5.04;100.00
64827;BME280;51265;53.972;12.286;2023-02-13T03:23:14;102663.16;;;5.08;100.00
64827;BME280;51265;53.972;12.286;2023-02-13T03:25:46;102660.66;;;5.06;100.00
64827;BME280;51265;53.972;12.286;2023-02-13T03:28:22;102661.69;;;5.05;100.00
64827;BME280;51265;53.972;12.286;2023-02-13T03:33:55;102671.78;;;5.05;100.00
64827;BME280;51265;53.972;12.286;2023-02-13T03:36:35;102682.94;;;5.03;100.00
64827;BME280;51265;53.972;12.286;2023-02-13T03:45:18;102679.78;;;4.99;100.00
64827;BME280;51265;53.972;12.286;2023-02-13T03:48:06;102662.97;;;4.96;100.00
64827;BME280;51265;53.972;12.286;2023-02-13T03:50:58;102659.63;;;4.94;100.00
64827;BME280;51265;53.972;12.286;2023-02-13T03:53:28;102668.00;;;4.92;100.00
64827;BME280;51265;53.972;12.286;2023-02-13T03:55:59;102676.00;;;4.94;100.00
64827;BME280;51265;53.972;12.286;2023-02-13T03:58:50;102677.25;;;5.11;100.00
64827;BME280;51265;53.972;12.286;2023-02-13T04:01:36;102678.69;;;5.14;100.00
64827;BME280;51265;53.972;12.286;2023-02-13T04:06:41;102666.06;;;5.26;100.00
64827;BME280;51265;53.972;12.286;2023-02-13T04:09:12;102662.91;;;5.29;100.00
64827;BME280;51265;53.972;12.286;2023-02-13T04:12:05;102670.47;;;5.40;100.00
64827;BME280;51265;53.972;12.286;2023-02-13T04:14:38;102664.91;;;5.67;100.00
64827;BME280;51265;53.972;12.286;2023-02-13T04:17:09;102638.03;;;5.57;100.00
64827;BME280;51265;53.972;12.286;2023-02-13T04:19:39;102623.81;;;5.29;100.00
64827;BME280;51265;53.972;12.286;2023-02-13T04:22:05;102620.22;;;5.41;100.00
64827;BME280;51265;53.972;12.286;2023-02-13T04:24:31;102599.91;;;5.17;100.00
64827;BME280;51265;53.972;12.286;2023-02-13T04:26:58;102598.66;;;5.13;100.00
64827;BME280;51265;53.972;12.286;2023-02-13T04:29:25;102611.28;;;5.14;100.00
64827;BME280;51265;53.972;12.286;2023-02-13T04:31:51;102608.13;;;5.11;100.00
64827;BME280;51265;53.972;12.286;2023-02-13T04:34:18;102607.06;;;5.18;100.00
64827;BME280;51265;53.972;12.286;2023-02-13T04:36:44;102596.97;;;5.19;100.00
64827;BME280;51265;53.972;12.286;2023-02-13T04:39:10;102606.59;;;5.21;100.00
64827;BME280;51265;53.972;12.286;2023-02-13T04:41:37;102603.28;;;5.13;100.00
64827;BME280;51265;53.972;12.286;2023-02-13T04:44:03;102604.53;;;5.17;100.00
64827;BME280;51265;53.972;12.286;2023-02-13T04:46:29;102608.72;;;5.13;100.00
64827;BME280;51265;53.972;12.286;2023-02-13T04:48:56;102600.34;;;5.14;100.00
64827;BME280;51265;53.972;12.286;2023-02-13T04:51:22;102619.84;;;5.24;100.00
64827;BME280;51265;53.972;12.286;2023-02-13T04:53:48;102595.63;;;5.41;100.00
64827;BME280;51265;53.972;12.286;2023-02-13T04:56:14;102574.28;;;5.05;100.00
64827;BME280;51265;53.972;12.286;2023-02-13T04:58:40;102579.31;;;5.15;100.00
64827;BME280;51265;53.972;12.286;2023-02-13T05:01:13;102584.78;;;5.15;100.00
64827;BME280;51265;53.972;12.286;2023-02-13T05:03:40;102586.69;;;5.14;100.00
64827;BME280;51265;53.972;12.286;2023-02-13T05:06:06;102589.38;;;5.21;100.00
64827;BME280;51265;53.972;12.286;2023-02-13T05:08:47;102594.78;;;5.34;100.00
64827;BME280;51265;53.972;12.286;2023-02-13T05:11:13;102585.41;;;5.17;100.00
64827;BME280;51265;53.972;12.286;2023-02-13T05:13:39;102575.63;;;4.89;100.00
64827;BME280;51265;53.972;12.286;2023-02-13T05:16:05;102593.25;;;4.80;100.00
64827;BME280;51265;53.972;12.286;2023-02-13T05:18:32;102601.22;;;4.88;100.00
64827;BME280;51265;53.972;12.286;2023-02-13T05:20:58;102607.50;;;4.95;100.00
64827;BME280;51265;53.972;12.286;2023-02-13T05:23:42;102612.13;;;5.02;100.00
64827;BME280;51265;53.972;12.286;2023-02-13T05:26:08;102611.28;;;5.08;100.00
64827;BME280;51265;53.972;12.286;2023-02-13T05:28:35;102620.94;;;5.10;100.00
64827;BME280;51265;53.972;12.286;2023-02-13T05:31:19;102606.44;;;5.10;100.00
64827;BME280;51265;53.972;12.286;2023-02-13T05:33:45;102613.59;;;5.11;100.00
64827;BME280;51265;53.972;12.286;2023-02-13T05:36:12;102614.63;;;5.10;100.00
64827;BME280;51265;53.972;12.286;2023-02-13T05:38:38;102609.56;;;5.20;100.00
64827;BME280;51265;53.972;12.286;2023-02-13T05:41:06;102604.09;;;5.20;100.00
64827;BME280;51265;53.972;12.286;2023-02-13T05:43:32;102604.53;;;5.17;100.00
64827;BME280;51265;53.972;12.286;2023-02-13T05:46:03;102597.81;;;5.19;100.00
64827;BME280;51265;53.972;12.286;2023-02-13T05:48:30;102595.25;;;5.18;100.00
64827;BME280;51265;53.972;12.286;2023-02-13T05:50:56;102593.63;;;5.04;100.00
64827;BME280;51265;53.972;12.286;2023-02-13T05:53:23;102598.25;;;4.96;100.00
64827;BME280;51265;53.972;12.286;2023-02-13T05:55:49;102608.78;;;4.86;100.00
64827;BME280;51265;53.972;12.286;2023-02-13T05:58:19;102623.91;;;4.95;100.00
64827;BME280;51265;53.972;12.286;2023-02-13T06:00:46;102619.69;;;4.93;100.00
64827;BME280;51265;53.972;12.286;2023-02-13T06:03:13;102626.03;;;4.93;100.00
64827;BME280;51265;53.972;12.286;2023-02-13T06:05:40;102624.97;;;4.88;100.00
64827;BME280;51265;53.972;12.286;2023-02-13T06:08:06;102640.72;;;4.79;100.00
64827;BME280;51265;53.972;12.286;2023-02-13T06:10:33;102642.41;;;4.73;100.00
64827;BME280;51265;53.972;12.286;2023-02-13T06:12:59;102652.91;;;4.70;100.00
64827;BME280;51265;53.972;12.286;2023-02-13T06:15:25;102654.38;;;4.66;100.00
64827;BME280;51265;53.972;12.286;2023-02-13T06:17:51;102664.88;;;4.69;100.00
64827;BME280;51265;53.972;12.286;2023-02-13T06:20:18;102673.47;;;4.66;100.00
64827;BME280;51265;53.972;12.286;2023-02-13T06:22:48;102676.44;;;4.64;100.00
64827;BME280;51265;53.972;12.286;2023-02-13T06:25:14;102673.91;;;4.63;100.00
64827;BME280;51265;53.972;12.286;2023-02-13T06:27:41;102673.91;;;4.63;100.00
64827;BME280;51265;53.972;12.286;2023-02-13T06:30:07;102676.00;;;4.61;100.00
64827;BME280;51265;53.972;12.286;2023-02-13T06:32:33;102670.09;;;4.64;100.00
64827;BME280;51265;53.972;12.286;2023-02-13T06:34:59;102665.91;;;4.68;100.00
64827;BME280;51265;53.972;12.286;2023-02-13T06:37:26;102664.88;;;4.69;100.00
64827;BME280;51265;53.972;12.286;2023-02-13T06:39:52;102660.03;;;4.71;100.00
64827;BME280;51265;53.972;12.286;2023-02-13T06:42:18;102662.16;;;4.69;100.00
64827;BME280;51265;53.972;12.286;2023-02-13T06:44:45;102661.72;;;4.72;100.00
64827;BME280;51265;53.972;12.286;2023-02-13T06:47:11;102654.59;;;4.78;100.00
64827;BME280;51265;53.972;12.286;2023-02-13T06:49:37;102649.31;;;4.76;100.00
64827;BME280;51265;53.972;12.286;2023-02-13T06:52:03;102644.94;;;4.82;100.00
64827;BME280;51265;53.972;12.286;2023-02-13T06:54:29;102638.63;;;4.81;100.00
64827;BME280;51265;53.972;12.286;2023-02-13T06:56:56;102645.13;;;4.80;100.00
64827;BME280;51265;53.972;12.286;2023-02-13T06:59:22;102654.56;;;4.84;100.00
64827;BME280;51265;53.972;12.286;2023-02-13T07:01:48;102647.25;;;4.78;100.00
64827;BME280;51265;53.972;12.286;2023-02-13T07:04:14;102660.03;;;4.84;100.00
64827;BME280;51265;53.972;12.286;2023-02-13T07:06:40;102658.78;;;4.93;100.00
64827;BME280;51265;53.972;12.286;2023-02-13T07:09:07;102661.72;;;4.85;100.00
64827;BME280;51265;53.972;12.286;2023-02-13T07:11:33;102656.88;;;4.81;100.00
64827;BME280;51265;53.972;12.286;2023-02-13T07:13:59;102659.22;;;4.77;100.00
64827;BME280;51265;53.972;12.286;2023-02-13T07:16:39;102660.88;;;4.78;100.00
64827;BME280;51265;53.972;12.286;2023-02-13T07:19:06;102662.75;;;4.84;100.00
64827;BME280;51265;53.972;12.286;2023-02-13T07:21:32;102661.72;;;4.85;100.00
64827;BME280;51265;53.972;12.286;2023-02-13T07:23:58;102655.44;;;4.78;100.00
64827;BME280;51265;53.972;12.286;2023-02-13T07:26:25;102661.28;;;4.88;100.00
64827;BME280;51265;53.972;12.286;2023-02-13T07:28:52;102655.41;;;4.85;100.00
64827;BME280;51265;53.972;12.286;2023-02-13T07:31:18;102644.50;;;4.91;100.00
64827;BME280;51265;53.972;12.286;2023-02-13T07:33:47;102641.75;;;4.91;100.00
64827;BME280;51265;53.972;12.286;2023-02-13T07:36:14;102636.91;;;5.00;100.00
64827;BME280;51265;53.972;12.286;2023-02-13T07:38:40;102634.41;;;4.98;100.00
64827;BME280;51265;53.972;12.286;2023-02-13T07:41:07;102640.94;;;4.97;100.00
64827;BME280;51265;53.972;12.286;2023-02-13T07:43:33;102633.75;;;4.96;100.00
64827;BME280;51265;53.972;12.286;2023-02-13T07:46:01;102633.97;;;5.02;100.00
64827;BME280;51265;53.972;12.286;2023-02-13T07:48:28;102628.72;;;5.07;100.00
64827;BME280;51265;53.972;12.286;2023-02-13T07:50:58;102635.44;;;5.04;100.00
64827;BME280;51265;53.972;12.286;2023-02-13T07:53:25;102626.84;;;4.94;100.00
64827;BME280;51265;53.972;12.286;2023-02-13T07:55:51;102625.56;;;5.03;100.00
64827;BME280;51265;53.972;12.286;2023-02-13T07:58:17;102624.31;;;4.99;100.00
64827;BME280;51265;53.972;12.286;2023-02-13T08:00:43;102626.00;;;5.00;100.00
64827;BME280;51265;53.972;12.286;2023-02-13T08:03:09;102623.91;;;5.02;100.00
64827;BME280;51265;53.972;12.286;2023-02-13T08:05:36;102643.00;;;5.09;100.00
64827;BME280;51265;53.972;12.286;2023-02-13T08:08:02;102639.44;;;5.08;100.00
64827;BME280;51265;53.972;12.286;2023-02-13T08:10:29;102646.56;;;5.16;100.00
64827;BME280;51265;53.972;12.286;2023-02-13T08:13:14;102634.78;;;5.09;100.00
64827;BME280;51265;53.972;12.286;2023-02-13T08:15:41;102648.03;;;5.12;100.00
64827;BME280;51265;53.972;12.286;2023-02-13T08:18:09;102644.66;;;5.10;100.00
64827;BME280;51265;53.972;12.286;2023-02-13T08:20:36;102648.88;;;5.19;100.00
64827;BME280;51265;53.972;12.286;2023-02-13T08:23:08;102640.03;;;5.17;100.00
64827;BME280;51265;53.972;12.286;2023-02-13T08:25:36;102646.94;;;5.26;100.00
64827;BME280;51265;53.972;12.286;2023-02-13T08:28:03;102638.97;;;5.18;100.00
64827;BME280;51265;53.972;12.286;2023-02-13T08:30:30;102635.22;;;5.19;100.00
64827;BME280;51265;53.972;12.286;2023-02-13T08:32:56;102644.00;;;5.21;100.00
64827;BME280;51265;53.972;12.286;2023-02-13T08:35:23;102645.25;;;5.32;100.00
64827;BME280;51265;53.972;12.286;2023-02-13T08:37:52;102630.16;;;5.16;100.00
64827;BME280;51265;53.972;12.286;2023-02-13T08:40:18;102659.53;;;5.40;100.00
64827;BME280;51265;53.972;12.286;2023-02-13T08:42:45;102642.72;;;5.30;100.00
64827;BME280;51265;53.972;12.286;2023-02-13T08:45:11;102642.31;;;5.33;100.00
64827;BME280;51265;53.972;12.286;2023-02-13T08:47:37;102631.00;;;5.23;100.00
64827;BME280;51265;53.972;12.286;2023-02-13T08:50:05;102637.72;;;5.27;100.00
64827;BME280;51265;53.972;12.286;2023-02-13T08:52:31;102636.88;;;5.20;100.00
64827;BME280;51265;53.972;12.286;2023-02-13T08:54:57;102653.66;;;5.30;100.00
64827;BME280;51265;53.972;12.286;2023-02-13T08:57:24;102660.31;;;5.47;100.00
64827;BME280;51265;53.972;12.286;2023-02-13T08:59:50;102645.19;;;5.52;100.00
64827;BME280;51265;53.972;12.286;2023-02-13T09:02:16;102636.78;;;5.46;100.00
64827;BME280;51265;53.972;12.286;2023-02-13T09:04:42;102639.69;;;5.58;100.00
64827;BME280;51265;53.972;12.286;2023-02-13T09:07:08;102627.94;;;5.58;100.00
64827;BME280;51265;53.972;12.286;2023-02-13T09:09:34;102628.41;;;5.48;100.00
64827;BME280;51265;53.972;12.286;2023-02-13T09:12:01;102639.22;;;5.68;100.00
64827;BME280;51265;53.972;12.286;2023-02-13T09:14:27;102622.03;;;5.61;100.00
64827;BME280;51265;53.972;12.286;2023-02-13T09:16:53;102626.00;;;5.65;100.00
64827;BME280;51265;53.972;12.286;2023-02-13T09:19:19;102615.69;;;5.67;100.00
64827;BME280;51265;53.972;12.286;2023-02-13T09:21:45;102611.09;;;5.61;100.00
64827;BME280;51265;53.972;12.286;2023-02-13T09:24:11;102606.91;;;5.58;100.00
64827;BME280;51265;53.972;12.286;2023-02-13T09:26:37;102616.59;;;5.54;100.00
64827;BME280;51265;53.972;12.286;2023-02-13T09:29:04;102626.88;;;5.59;100.00
64827;BME280;51265;53.972;12.286;2023-02-13T09:31:30;102634.22;;;5.65;100.00
64827;BME280;51265;53.972;12.286;2023-02-13T09:33:56;102622.03;;;5.61;100.00
64827;BME280;51265;53.972;12.286;2023-02-13T09:36:22;102623.22;;;5.78;100.00
64827;BME280;51265;53.972;12.286;2023-02-13T09:38:54;102625.72;;;5.80;100.00
64827;BME280;51265;53.972;12.286;2023-02-13T09:41:25;102617.75;;;5.78;100.00
64827;BME280;51265;53.972;12.286;2023-02-13T09:43:55;102611.09;;;5.61;100.00
64827;BME280;51265;53.972;12.286;2023-02-13T09:46:33;102617.41;;;5.55;100.00
64827;BME280;51265;53.972;12.286;2023-02-13T09:49:04;102606.97;;;5.45;100.00
64827;BME280;51265;53.972;12.286;2023-02-13T09:51:33;102626.66;;;5.60;100.00
64827;BME280;51265;53.972;12.286;2023-02-13T09:54:07;102611.97;;;5.55;100.00
64827;BME280;51265;53.972;12.286;2023-02-13T09:56:58;102625.81;;;5.60;100.00
64827;BME280;51265;53.972;12.286;2023-02-13T09:59:51;102620.75;;;5.63;100.00
64827;BME280;51265;53.972;12.286;2023-02-13T10:02:29;102617.59;;;5.60;100.00
64827;BME280;51265;53.972;12.286;2023-02-13T10:05:26;102619.31;;;5.61;100.00
64827;BME280;51265;53.972;12.286;2023-02-13T10:08:56;102618.66;;;5.59;100.00
64827;BME280;51265;53.972;12.286;2023-02-13T10:11:22;102637.78;;;5.65;100.00
64827;BME280;51265;53.972;12.286;2023-02-13T10:14:16;102626.22;;;5.63;100.00
64827;BME280;51265;53.972;12.286;2023-02-13T10:16:50;102623.28;;;5.65;100.00
64827;BME280;51265;53.972;12.286;2023-02-13T10:21:54;102633.34;;;5.71;100.00
64827;BME280;51265;53.972;12.286;2023-02-13T10:24:34;102630.84;;;5.69;100.00
64827;BME280;51265;53.972;12.286;2023-02-13T10:27:11;102628.25;;;5.81;100.00
64827;BME280;51265;53.972;12.286;2023-02-13T10:29:55;102616.50;;;5.74;100.00
64827;BME280;51265;53.972;12.286;2023-02-13T10:35:26;102637.94;;;5.77;100.00
64827;BME280;51265;53.972;12.286;2023-02-13T10:37:56;102616.50;;;5.74;100.00
64827;BME280;51265;53.972;12.286;2023-02-13T10:40:31;102610.19;;;5.73;100.00
64827;BME280;51265;53.972;12.286;2023-02-13T10:43:10;102602.97;;;5.86;100.00
64827;BME280;51265;53.972;12.286;2023-02-13T10:46:11;102592.91;;;5.80;100.00
64827;BME280;51265;53.972;12.286;2023-02-13T10:51:32;102578.63;;;5.78;100.00
64827;BME280;51265;53.972;12.286;2023-02-13T10:59:07;102581.31;;;5.84;100.00
64827;BME280;51265;53.972;12.286;2023-02-13T11:01:47;102587.84;;;5.83;100.00
64827;BME280;51265;53.972;12.286;2023-02-13T11:04:18;102595.41;;;5.94;100.00
64827;BME280;51265;53.972;12.286;2023-02-13T11:06:58;102600.81;;;6.01;100.00
64827;BME280;51265;53.972;12.286;2023-02-13T11:09:26;102590.75;;;5.88;100.00
64827;BME280;51265;53.972;12.286;2023-02-13T11:11:53;102597.53;;;5.79;100.00
64827;BME280;51265;53.972;12.286;2023-02-13T11:14:21;102589.00;;;5.69;100.00
64827;BME280;51265;53.972;12.286;2023-02-13T11:17:00;102601.16;;;5.73;100.00
64827;BME280;51265;53.972;12.286;2023-02-13T11:19:38;102597.53;;;5.79;100.00
64827;BME280;51265;53.972;12.286;2023-02-13T11:22:12;102589.56;;;5.78;100.00
64827;BME280;51265;53.972;12.286;2023-02-13T11:24:39;102597.53;;;5.79;100.00
64827;BME280;51265;53.972;12.286;2023-02-13T11:27:08;102606.59;;;5.80;100.00
64827;BME280;51265;53.972;12.286;2023-02-13T11:30:06;102603.66;;;5.81;100.00
64827;BME280;51265;53.972;12.286;2023-02-13T11:33:00;102599.66;;;5.77;100.00
64827;BME280;51265;53.972;12.286;2023-02-13T11:35:30;102594.56;;;5.81;100.00
64827;BME280;51265;53.972;12.286;2023-02-13T11:38:10;102583.44;;;5.82;100.00
64827;BME280;51265;53.972;12.286;2023-02-13T11:40:37;102604.63;;;5.93;100.00
64827;BME280;51265;53.972;12.286;2023-02-13T11:43:07;102577.34;;;5.80;100.00
64827;BME280;51265;53.972;12.286;2023-02-13T11:45:33;102584.84;;;5.91;100.00
64827;BME280;51265;53.972;12.286;2023-02-13T11:47:59;102584.44;;;5.94;100.00
64827;BME280;51265;53.972;12.286;2023-02-13T11:50:31;102576.84;;;5.96;100.00
64827;BME280;51265;53.972;12.286;2023-02-13T11:53:17;102560.44;;;5.96;100.00
64827;BME280;51265;53.972;12.286;2023-02-13T11:58:27;102534.91;;;5.71;100.00
64827;BME280;51265;53.972;12.286;2023-02-13T12:01:25;102532.00;;;5.66;100.00
64827;BME280;51265;53.972;12.286;2023-02-13T12:06:27;102530.34;;;5.65;100.00
64827;BME280;51265;53.972;12.286;2023-02-13T12:08:54;102541.47;;;5.63;100.00
64827;BME280;51265;53.972;12.286;2023-02-13T12:11:35;102555.72;;;5.72;100.00
64827;BME280;51265;53.972;12.286;2023-02-13T12:14:04;102545.84;;;5.71;100.00
64827;BME280;51265;53.972;12.286;2023-02-13T12:16:36;102554.72;;;5.60;100.00
64827;BME280;51265;53.972;12.286;2023-02-13T12:19:09;102561.50;;;5.50;100.00
64827;BME280;51265;53.972;12.286;2023-02-13T12:21:55;102580.81;;;5.62;100.00
64827;BME280;51265;53.972;12.286;2023-02-13T12:30:13;102562.16;;;5.84;100.00
64827;BME280;51265;53.972;12.286;2023-02-13T12:38:04;102544.97;;;5.77;100.00
64827;BME280;51265;53.972;12.286;2023-02-13T12:40:57;102555.28;;;5.75;100.00
64827;BME280;51265;53.972;12.286;2023-02-13T12:43:52;102567.22;;;5.81;100.00
64827;BME280;51265;53.972;12.286;2023-02-13T12:46:52;102568.72;;;5.77;100.00
64827;BME280;51265;53.972;12.286;2023-02-13T12:49:35;102566.19;;;5.82;100.00
64827;BME280;51265;53.972;12.286;2023-02-13T12:54:57;102552.72;;;5.80;100.00
64827;BME280;51265;53.972;12.286;2023-02-13T13:01:04;102526.09;;;5.69;100.00
64827;BME280;51265;53.972;12.286;2023-02-13T13:03:50;102544.34;;;5.75;100.00
64827;BME280;51265;53.972;12.286;2023-02-13T13:06:36;102569.13;;;5.80;100.00
64827;BME280;51265;53.972;12.286;2023-02-13T13:14:17;102557.16;;;5.81;100.00
64827;BME280;51265;53.972;12.286;2023-02-13T13:16:56;102543.09;;;5.78;100.00
64827;BME280;51265;53.972;12.286;2023-02-13T13:22:26;102525.31;;;5.93;100.00
64827;BME280;51265;53.972;12.286;2023-02-13T13:25:12;102525.44;;;6.05;100.00
64827;BME280;51265;53.972;12.286;2023-02-13T13:27:45;102490.63;;;5.87;100.00
64827;BME280;51265;53.972;12.286;2023-02-13T13:30:34;102512.50;;;5.94;100.00
64827;BME280;51265;53.972;12.286;2023-02-13T13:33:09;102508.28;;;5.91;100.00
64827;BME280;51265;53.972;12.286;2023-02-13T13:35:59;102502.41;;;5.88;100.00
64827;BME280;51265;53.972;12.286;2023-02-13T13:47:04;102485.16;;;5.94;100.00
64827;BME280;51265;53.972;12.286;2023-02-13T13:49:42;102477.16;;;5.92;100.00
64827;BME280;51265;53.972;12.286;2023-02-13T13:54:53;102456.03;;;6.06;100.00
64827;BME280;51265;53.972;12.286;2023-02-13T13:57:24;102438.88;;;5.92;100.00
64827;BME280;51265;53.972;12.286;2023-02-13T13:59:58;102445.56;;;5.96;100.00
64827;BME280;51265;53.972;12.286;2023-02-13T14:02:37;102436.97;;;5.93;100.00
64827;BME280;51265;53.972;12.286;2023-02-13T14:07:54;102445.97;;;6.00;100.00
64827;BME280;51265;53.972;12.286;2023-02-13T14:10:59;102439.66;;;5.99;100.00
64827;BME280;51265;53.972;12.286;2023-02-13T14:13:37;102432.22;;;5.82;100.00
64827;BME280;51265;53.972;12.286;2023-02-13T14:16:09;102445.66;;;5.83;100.00
64827;BME280;51265;53.972;12.286;2023-02-13T14:18:36;102444.81;;;5.83;100.00
64827;BME280;51265;53.972;12.286;2023-02-13T14:21:04;102434.03;;;5.88;100.00
64827;BME280;51265;53.972;12.286;2023-02-13T14:23:45;102443.38;;;6.05;100.00
64827;BME280;51265;53.972;12.286;2023-02-13T14:26:25;102425.00;;;5.87;100.00
64827;BME280;51265;53.972;12.286;2023-02-13T14:31:32;102413.75;;;5.77;100.00
64827;BME280;51265;53.972;12.286;2023-02-13T14:36:31;102434.56;;;5.78;100.00
64827;BME280;51265;53.972;12.286;2023-02-13T14:39:01;102419.50;;;5.69;100.00
64827;BME280;51265;53.972;12.286;2023-02-13T14:45:03;102413.81;;;5.64;100.00